Valatie, New York
Current Conditions -  °F | °C
As of 4:54 PM on Monday 22 Dec 2014 (Local Time) from KPSF Reporting Station
Overcast Overcast  
Wind Chill: 31°   Ceiling: 1300
Heat Index: 35°   Visibility: 10mi
Dew Point: 31°   Wind: 5mph
Humidity: 85%   Direction: 80°E
Pressure: 30.23"   Gusts: NA
Location:  42.41°N, 73.67°W
Report Text: KPSF 222154Z AUTO 08004KT 10SM OVC013 02/M01 A3023 RMK AO2 UPB26E34 SLP248 P0000 T00171006
Loading
Personal Weather Stations






























Interactive Weather Map New forecast layout! Learn more

10-Day Weather Forecast

Advertisements
Track Severe Weather on mobile